createdAt,value
2019-04-11T00:01:01.749Z,4.80
2019-04-11T00:03:31.583Z,4.80
2019-04-11T00:06:01.410Z,4.80
2019-04-11T00:08:30.780Z,4.70
2019-04-11T00:11:00.096Z,4.70
2019-04-11T00:13:31.754Z,4.70
2019-04-11T00:15:59.665Z,4.50
2019-04-11T00:18:28.900Z,4.50
2019-04-11T00:20:58.312Z,4.50
2019-04-11T00:23:28.374Z,4.40
2019-04-11T00:25:58.520Z,4.40
2019-04-11T00:28:29.833Z,4.40
2019-04-11T00:30:59.212Z,4.30
2019-04-11T00:33:29.927Z,4.30
2019-04-11T00:35:59.882Z,4.30
2019-04-11T00:38:29.968Z,4.30
2019-04-11T00:40:59.753Z,4.20
2019-04-11T00:43:35.817Z,4.20
2019-04-11T00:46:01.797Z,4.20
2019-04-11T00:48:31.521Z,4.20
2019-04-11T00:51:01.441Z,4.20
2019-04-11T00:53:30.986Z,4.20
2019-04-11T00:56:00.401Z,4.10
2019-04-11T00:58:30.518Z,4.20
2019-04-11T01:01:01.645Z,4.20
2019-04-11T01:03:31.242Z,4.20
2019-04-11T01:06:01.594Z,4.20
2019-04-11T01:08:31.484Z,4.20
2019-04-11T01:11:01.479Z,4.20
2019-04-11T01:13:41.484Z,4.10
2019-04-11T01:16:04.961Z,4.20
2019-04-11T01:18:34.444Z,4.10
2019-04-11T01:21:04.065Z,4.10
2019-04-11T01:23:33.423Z,4.10
2019-04-11T01:26:03.282Z,4.10
2019-04-11T01:28:32.663Z,4.10
2019-04-11T01:31:13.571Z,4.10
2019-04-11T01:33:44.182Z,4.10
2019-04-11T01:36:13.743Z,4.10
2019-04-11T01:38:44.699Z,4.10
2019-04-11T01:41:14.163Z,4.00
2019-04-11T01:43:52.683Z,4.00
2019-04-11T01:46:14.641Z,4.00
2019-04-11T01:48:45.909Z,4.00
2019-04-11T01:51:16.341Z,4.00
2019-04-11T01:53:46.887Z,3.90
2019-04-11T01:56:16.895Z,3.90
2019-04-11T01:58:46.866Z,3.90
2019-04-11T02:01:30.583Z,3.90
2019-04-11T02:04:07.892Z,3.90
2019-04-11T02:06:38.141Z,3.80
2019-04-11T02:09:11.594Z,3.80
2019-04-11T02:11:41.544Z,3.80
2019-04-11T02:14:16.112Z,3.80
2019-04-11T02:16:43.207Z,3.80
2019-04-11T02:19:12.708Z,3.70
2019-04-11T02:21:42.456Z,3.70
2019-04-11T02:24:25.846Z,3.70
2019-04-11T02:26:56.902Z,3.60
2019-04-11T02:29:26.201Z,3.60
2019-04-11T02:31:57.139Z,3.60
2019-04-11T02:34:27.720Z,3.50
2019-04-11T02:36:58.609Z,3.50
2019-04-11T02:39:30.811Z,3.50
2019-04-11T02:42:01.282Z,3.40
2019-04-11T02:44:45.432Z,3.40
2019-04-11T02:47:08.390Z,3.40
2019-04-11T02:49:33.099Z,3.40
2019-04-11T02:52:02.780Z,3.40
2019-04-11T02:54:33.542Z,3.40
2019-04-11T02:57:03.322Z,3.40
2019-04-11T02:59:34.372Z,3.40
2019-04-11T03:02:06.772Z,3.40
2019-04-11T03:04:37.086Z,3.30
2019-04-11T03:07:05.939Z,3.20
2019-04-11T03:09:37.274Z,3.20
2019-04-11T03:12:07.379Z,3.20
2019-04-11T03:14:54.343Z,3.10
2019-04-11T03:17:14.943Z,3.10
2019-04-11T03:19:54.748Z,3.10
2019-04-11T03:22:10.335Z,3.00
2019-04-11T03:24:40.628Z,3.00
2019-04-11T03:27:11.485Z,3.00
2019-04-11T03:29:42.962Z,2.90
2019-04-11T03:33:00.764Z,2.90
2019-04-11T03:35:38.713Z,2.90
2019-04-11T03:37:37.994Z,2.80
2019-04-11T03:40:11.895Z,2.80
2019-04-11T03:42:41.748Z,2.70
2019-04-11T03:45:15.097Z,2.70
2019-04-11T03:47:37.335Z,2.70
2019-04-11T03:50:03.820Z,2.60
2019-04-11T03:52:28.512Z,2.60
2019-04-11T03:54:58.885Z,2.50
2019-04-11T03:57:29.787Z,2.50
2019-04-11T04:00:00.982Z,2.50
2019-04-11T04:02:32.643Z,2.40
2019-04-11T04:05:03.833Z,2.40
2019-04-11T04:07:33.961Z,2.50
2019-04-11T04:10:05.203Z,2.40
2019-04-11T04:12:37.690Z,2.40
2019-04-11T04:15:13.030Z,2.40
2019-04-11T04:17:46.187Z,2.40
2019-04-11T04:20:28.872Z,2.40
2019-04-11T04:23:13.945Z,2.40
2019-04-11T04:25:45.650Z,2.30
2019-04-11T04:28:15.868Z,2.30
2019-04-11T04:30:47.039Z,2.20
2019-04-11T04:33:19.332Z,2.20
2019-04-11T04:35:49.668Z,2.20
2019-04-11T04:38:20.947Z,2.20
2019-04-11T04:41:07.667Z,2.20
2019-04-11T04:43:27.212Z,2.20
2019-04-11T04:46:13.687Z,2.10
2019-04-11T04:48:29.502Z,2.10
2019-04-11T04:51:03.462Z,2.10
2019-04-11T04:53:30.783Z,2.00
2019-04-11T04:56:00.369Z,2.00
2019-04-11T04:58:31.553Z,1.90
2019-04-11T05:01:01.299Z,1.90
2019-04-11T05:03:32.051Z,1.90
2019-04-11T05:06:03.877Z,1.80
2019-04-11T05:08:34.728Z,1.80
2019-04-11T05:11:05.178Z,1.80
2019-04-11T05:13:36.533Z,1.80
2019-04-11T05:16:16.060Z,1.90
2019-04-11T05:18:37.835Z,1.90
2019-04-11T05:21:07.154Z,2.10
2019-04-11T05:23:37.422Z,2.10
2019-04-11T05:26:06.919Z,2.10
2019-04-11T05:28:37.201Z,2.30
2019-04-11T05:31:06.723Z,2.40
2019-04-11T05:33:36.984Z,2.50
2019-04-11T05:36:06.301Z,2.60
2019-04-11T05:38:35.953Z,2.70
2019-04-11T05:41:09.678Z,2.80
2019-04-11T05:43:37.311Z,3.00
2019-04-11T05:46:23.318Z,3.20
2019-04-11T05:48:42.769Z,3.30
2019-04-11T05:51:13.054Z,3.30
2019-04-11T05:53:43.706Z,3.30
2019-04-11T05:56:13.956Z,3.40
2019-04-11T05:58:47.008Z,3.40
2019-04-11T06:01:16.690Z,3.60
2019-04-11T06:03:46.377Z,3.70
2019-04-11T06:06:36.126Z,4.00
2019-04-11T06:09:02.417Z,4.20
2019-04-11T06:11:54.430Z,4.50
2019-04-11T06:14:23.515Z,4.90
2019-04-11T06:16:56.147Z,5.20
2019-04-11T06:19:43.874Z,5.20
2019-04-11T06:22:13.235Z,5.30
2019-04-11T06:25:00.608Z,5.60
2019-04-11T06:27:33.661Z,5.60
2019-04-11T06:30:24.458Z,5.60
2019-04-11T06:33:12.893Z,5.90
2019-04-11T06:35:59.988Z,6.20
2019-04-11T06:38:47.139Z,6.60
2019-04-11T06:41:26.806Z,6.70
2019-04-11T06:44:12.498Z,7.10
2019-04-11T06:46:53.848Z,7.50
2019-04-11T06:49:28.722Z,7.70
2019-04-11T06:52:05.311Z,8.30
2019-04-11T06:54:41.688Z,8.30
2019-04-11T06:57:13.895Z,8.80
2019-04-11T06:59:44.995Z,9.00
2019-04-11T07:02:19.791Z,9.00
2019-04-11T07:05:00.282Z,9.00
2019-04-11T07:07:32.791Z,9.30
2019-04-11T07:10:06.724Z,9.20
2019-04-11T07:12:55.623Z,10.00
2019-04-11T07:15:27.232Z,10.50
2019-04-11T07:18:14.579Z,10.50
2019-04-11T07:20:46.675Z,11.00
2019-04-11T07:23:33.156Z,10.90
2019-04-11T07:26:10.206Z,10.60
2019-04-11T07:28:41.674Z,10.60
2019-04-11T07:31:30.012Z,10.40
2019-04-11T07:34:04.342Z,10.40
2019-04-11T07:36:50.739Z,11.00
2019-04-11T07:39:24.645Z,11.40
2019-04-11T07:41:56.149Z,11.00
2019-04-11T07:44:28.895Z,11.30
2019-04-11T07:47:01.399Z,11.00
2019-04-11T07:49:35.136Z,10.90
2019-04-11T07:52:08.986Z,11.00
2019-04-11T07:54:38.982Z,10.90
2019-04-11T07:57:26.322Z,11.10
2019-04-11T08:00:04.232Z,11.40
2019-04-11T08:02:53.214Z,11.70
2019-04-11T08:05:30.311Z,11.60
2019-04-11T08:08:17.606Z,12.00
2019-04-11T08:10:48.609Z,12.30
2019-04-11T08:13:31.371Z,12.50
2019-04-11T08:16:18.858Z,12.90
2019-04-11T08:18:55.827Z,12.70
2019-04-11T08:21:44.674Z,12.70
2019-04-11T08:24:16.356Z,12.90
2019-04-11T08:27:03.422Z,12.50
2019-04-11T08:29:33.931Z,13.10
2019-04-11T08:32:17.881Z,13.30
2019-04-11T08:34:51.903Z,13.20
2019-04-11T08:37:25.577Z,13.00
2019-04-11T08:39:57.641Z,13.10
2019-04-11T08:42:44.972Z,13.40
2019-04-11T08:45:17.594Z,13.50
2019-04-11T08:47:52.684Z,14.00
2019-04-11T08:50:24.206Z,14.20
2019-04-11T08:53:04.622Z,14.20
2019-04-11T08:55:45.580Z,14.40
2019-04-11T08:58:08.548Z,14.60
2019-04-11T09:00:40.192Z,14.50
2019-04-11T09:03:26.003Z,14.60
2019-04-11T09:06:08.313Z,15.50
2019-04-11T09:08:56.471Z,15.70
2019-04-11T09:11:29.075Z,15.80
2019-04-11T09:14:16.750Z,15.70
2019-04-11T09:16:50.657Z,15.70
2019-04-11T09:19:39.392Z,15.40
2019-04-11T09:22:13.322Z,15.90
2019-04-11T09:24:44.256Z,16.00
2019-04-11T09:27:24.838Z,16.10
2019-04-11T09:30:11.459Z,16.10
2019-04-11T09:32:56.975Z,16.00
2019-04-11T09:35:33.903Z,15.70
2019-04-11T09:38:10.673Z,15.30
2019-04-11T09:40:43.753Z,15.20
2019-04-11T09:46:16.548Z,14.30
2019-04-11T09:48:56.495Z,14.90
2019-04-11T09:51:29.980Z,15.20
2019-04-11T09:54:05.654Z,15.40
2019-04-11T09:56:37.800Z,15.60
2019-04-11T09:59:14.790Z,15.90
2019-04-11T10:01:56.057Z,16.00
2019-04-11T10:04:27.623Z,16.30
2019-04-11T10:07:03.335Z,16.40
2019-04-11T10:09:50.460Z,16.40
2019-04-11T10:12:40.510Z,16.70
2019-04-11T10:15:11.418Z,16.60
2019-04-11T10:17:58.978Z,16.70
2019-04-11T10:20:28.815Z,16.10
2019-04-11T10:23:16.486Z,16.10
2019-04-11T10:25:47.520Z,15.90
2019-04-11T10:28:27.414Z,16.10
2019-04-11T10:31:02.120Z,16.10
2019-04-11T10:33:35.818Z,16.10
2019-04-11T10:36:25.789Z,16.10
2019-04-11T10:39:00.544Z,14.90
2019-04-11T10:41:35.722Z,14.70
2019-04-11T10:44:05.533Z,15.10
2019-04-11T10:46:42.374Z,14.50
2019-04-11T10:49:19.974Z,13.50
2019-04-11T10:52:00.339Z,13.30
2019-04-11T10:54:32.476Z,14.40
2019-04-11T10:57:06.110Z,15.00
2019-04-11T10:59:38.554Z,14.30
2019-04-11T11:02:26.206Z,14.70
2019-04-11T11:04:59.030Z,14.90
2019-04-11T11:07:30.753Z,15.20
2019-04-11T11:10:04.742Z,15.30
2019-04-11T11:12:38.381Z,15.20
2019-04-11T11:15:11.501Z,15.10
2019-04-11T11:18:31.895Z,14.80
2019-04-11T11:20:54.023Z,14.40
2019-04-11T11:23:29.110Z,14.70
2019-04-11T11:26:07.013Z,15.20
2019-04-11T11:28:38.723Z,15.50
2019-04-11T11:31:09.790Z,16.30
2019-04-11T11:33:38.937Z,16.70
2019-04-11T11:36:26.261Z,16.90
2019-04-11T11:39:13.043Z,16.60
2019-04-11T11:42:01.949Z,16.40
2019-04-11T11:44:33.129Z,16.00
2019-04-11T11:47:19.999Z,16.00
2019-04-11T11:49:57.153Z,16.00
2019-04-11T11:52:41.226Z,16.00
2019-04-11T11:55:18.984Z,16.10
2019-04-11T11:57:53.032Z,16.30
2019-04-11T12:00:25.055Z,16.50
2019-04-11T12:02:56.954Z,15.70
2019-04-11T12:05:29.406Z,15.80
2019-04-11T12:08:15.364Z,16.30
2019-04-11T12:10:47.635Z,16.20
2019-04-11T12:13:24.311Z,17.30
2019-04-11T12:15:57.784Z,16.90
2019-04-11T12:18:31.426Z,16.50
2019-04-11T12:21:03.199Z,16.40
2019-04-11T12:23:53.009Z,16.60
2019-04-11T12:26:33.263Z,16.90
2019-04-11T12:29:12.367Z,16.90
2019-04-11T12:31:43.991Z,16.80
2019-04-11T12:34:18.639Z,16.40
2019-04-11T12:36:50.957Z,15.10
2019-04-11T12:39:45.642Z,14.60
2019-04-11T12:42:16.524Z,15.20
2019-04-11T12:45:06.252Z,15.70
2019-04-11T12:47:54.256Z,16.10
2019-04-11T12:50:41.934Z,16.40
2019-04-11T12:53:12.245Z,16.50
2019-04-11T12:55:49.210Z,16.80
2019-04-11T12:58:28.992Z,16.30
2019-04-11T13:01:11.941Z,16.70
2019-04-11T13:03:42.901Z,17.00
2019-04-11T13:06:35.123Z,17.30
2019-04-11T13:09:07.079Z,17.50
2019-04-11T13:11:43.657Z,17.40
2019-04-11T13:14:31.024Z,17.30
2019-04-11T13:17:04.830Z,17.50
2019-04-11T13:19:47.839Z,16.60
2019-04-11T13:22:18.789Z,16.10
2019-04-11T13:24:55.302Z,16.50
2019-04-11T13:27:26.208Z,16.30
2019-04-11T13:30:03.217Z,16.40
2019-04-11T13:32:34.815Z,16.60
2019-04-11T13:35:10.634Z,17.00
2019-04-11T13:37:57.704Z,16.90
2019-04-11T13:40:28.678Z,16.90
2019-04-11T13:42:59.635Z,16.70
2019-04-11T13:45:30.594Z,16.50
2019-04-11T13:48:17.883Z,16.50
2019-04-11T13:50:48.849Z,16.10
2019-04-11T13:53:35.882Z,16.00
2019-04-11T13:56:06.160Z,16.20
2019-04-11T13:58:46.359Z,16.40
2019-04-11T14:01:15.777Z,16.50
2019-04-11T14:04:01.407Z,16.70
2019-04-11T14:06:30.733Z,16.10
2019-04-11T14:09:08.407Z,16.00
2019-04-11T14:11:39.428Z,15.20
2019-04-11T14:14:16.158Z,14.50
2019-04-11T14:16:49.624Z,14.20
2019-04-11T14:19:36.785Z,14.10
2019-04-11T14:22:07.710Z,14.40
2019-04-11T14:24:41.723Z,14.40
2019-04-11T14:27:21.876Z,14.60
2019-04-11T14:29:55.905Z,14.60
2019-04-11T14:32:26.857Z,14.70
2019-04-11T14:35:00.369Z,14.50
2019-04-11T14:37:40.059Z,14.70
2019-04-11T14:40:20.604Z,14.50
2019-04-11T14:43:00.402Z,14.50
2019-04-11T14:45:36.593Z,14.40
2019-04-11T14:48:22.137Z,14.10
2019-04-11T14:51:03.237Z,13.90
2019-04-11T14:53:51.478Z,13.50
2019-04-11T14:56:28.504Z,13.30
2019-04-11T14:59:15.654Z,13.10
2019-04-11T15:01:46.608Z,13.10
2019-04-11T15:04:33.974Z,12.90
2019-04-11T15:07:04.775Z,13.00
2019-04-11T15:09:52.783Z,12.80
2019-04-11T15:12:23.739Z,12.30
2019-04-11T15:14:58.624Z,12.10
2019-04-11T15:17:38.663Z,11.90
2019-04-11T15:20:12.751Z,11.90
2019-04-11T15:22:49.842Z,11.90
2019-04-11T15:25:26.583Z,11.80
2019-04-11T15:28:07.967Z,11.80
2019-04-11T15:30:49.356Z,11.90
2019-04-11T15:33:36.906Z,11.90
2019-04-11T15:36:19.754Z,11.80
2019-04-11T15:39:06.892Z,11.80
2019-04-11T15:41:37.949Z,11.60
2019-04-11T15:44:14.725Z,11.70
2019-04-11T15:46:47.654Z,11.80
2019-04-11T15:49:21.866Z,11.70
2019-04-11T15:51:49.277Z,11.50
2019-04-11T15:54:19.455Z,11.50
2019-04-11T15:59:38.329Z,11.50
2019-04-11T16:02:11.882Z,11.40
2019-04-11T16:04:48.698Z,11.30
2019-04-11T16:07:37.822Z,11.20
2019-04-11T16:10:11.680Z,11.00
2019-04-11T16:12:43.859Z,11.10
2019-04-11T16:15:14.823Z,11.10
2019-04-11T16:18:02.077Z,11.10
2019-04-11T16:20:31.397Z,11.10
2019-04-11T16:23:18.792Z,11.00
2019-04-11T16:25:49.755Z,11.00
2019-04-11T16:28:25.960Z,10.90
2019-04-11T16:30:56.958Z,10.70
2019-04-11T16:33:39.452Z,10.60
2019-04-11T16:36:10.423Z,10.40
2019-04-11T16:38:49.760Z,10.20
2019-04-11T16:41:36.105Z,10.20
2019-04-11T16:44:26.407Z,10.00
2019-04-11T16:47:13.744Z,10.00
2019-04-11T16:49:43.063Z,9.90
2019-04-11T16:52:12.386Z,9.90
2019-04-11T16:54:54.154Z,9.90
2019-04-11T16:57:23.481Z,9.90
2019-04-11T16:59:52.807Z,9.90
2019-04-11T17:02:24.346Z,9.90
2019-04-11T17:04:55.661Z,9.80
2019-04-11T17:07:37.812Z,9.80
2019-04-11T17:10:08.141Z,9.80
2019-04-11T17:12:37.474Z,9.80
2019-04-11T17:15:07.927Z,9.80
2019-04-11T17:17:37.222Z,9.70
2019-04-11T17:20:07.678Z,9.60
2019-04-11T17:22:37.002Z,9.50
2019-04-11T17:25:06.644Z,9.40
2019-04-11T17:27:35.970Z,9.20
2019-04-11T17:30:08.480Z,9.20
2019-04-11T17:32:37.803Z,9.10
2019-04-11T17:35:08.150Z,9.00
2019-04-11T17:37:37.526Z,8.90
2019-04-11T17:40:07.714Z,8.80
2019-04-11T17:42:37.153Z,8.70
2019-04-11T17:45:06.916Z,8.70
2019-04-11T17:47:36.314Z,8.60
2019-04-11T17:50:08.501Z,8.60
2019-04-11T17:52:37.859Z,8.60
2019-04-11T17:55:07.300Z,8.60
2019-04-11T17:57:36.622Z,8.50
2019-04-11T18:00:09.024Z,8.40
2019-04-11T18:02:39.019Z,8.30
2019-04-11T18:05:09.732Z,8.40
2019-04-11T18:07:41.315Z,8.30
2019-04-11T18:10:10.298Z,8.30
2019-04-11T18:12:39.569Z,8.20
2019-04-11T18:15:08.991Z,8.20
2019-04-11T18:17:38.307Z,8.10
2019-04-11T18:20:09.462Z,8.00
2019-04-11T18:22:38.761Z,8.00
2019-04-11T18:25:08.235Z,7.90
2019-04-11T18:27:37.543Z,7.80
2019-04-11T18:30:09.974Z,7.80
2019-04-11T18:32:39.590Z,7.70
2019-04-11T18:35:09.226Z,7.70
2019-04-11T18:37:38.646Z,7.60
2019-04-11T18:40:10.323Z,7.60
2019-04-11T18:42:39.282Z,7.60
2019-04-11T18:45:09.409Z,7.50
2019-04-11T18:47:38.768Z,7.50
2019-04-11T18:50:08.968Z,7.50
2019-04-11T18:52:38.450Z,7.40
2019-04-11T18:55:08.001Z,7.30
2019-04-11T18:57:38.019Z,7.20
2019-04-11T19:00:11.392Z,7.10
2019-04-11T19:02:40.798Z,7.10
2019-04-11T19:05:10.859Z,7.00
2019-04-11T19:07:42.993Z,7.00
2019-04-11T19:10:15.043Z,6.90
2019-04-11T19:12:46.351Z,6.90
2019-04-11T19:15:16.659Z,6.90
2019-04-11T19:17:46.823Z,6.70
2019-04-11T19:20:18.946Z,6.60
2019-04-11T19:22:48.733Z,6.60
2019-04-11T19:25:18.025Z,6.50
2019-04-11T19:27:50.436Z,6.40
2019-04-11T19:30:18.453Z,6.30
2019-04-11T19:32:47.785Z,6.20
2019-04-11T19:35:17.160Z,6.10
2019-04-11T19:37:46.555Z,6.20
2019-04-11T19:40:16.388Z,6.20
2019-04-11T19:42:49.182Z,6.20
2019-04-11T19:45:19.585Z,6.10
2019-04-11T19:47:52.280Z,6.00
2019-04-11T19:50:20.647Z,6.00
2019-04-11T19:52:49.937Z,6.00
2019-04-11T19:55:26.937Z,6.00
2019-04-11T19:57:56.275Z,6.10
2019-04-11T20:00:25.600Z,6.00
2019-04-11T20:02:55.199Z,6.10
2019-04-11T20:05:24.554Z,6.10
2019-04-11T20:07:53.989Z,6.00
2019-04-11T20:10:23.334Z,6.00
2019-04-11T20:12:52.714Z,6.00
2019-04-11T20:15:23.027Z,5.90
2019-04-11T20:17:52.330Z,5.90
2019-04-11T20:20:21.654Z,5.90
2019-04-11T20:22:58.993Z,5.90
2019-04-11T20:25:22.100Z,5.80
2019-04-11T20:27:51.487Z,5.80
2019-04-11T20:30:22.936Z,5.80
2019-04-11T20:32:51.944Z,5.70
2019-04-11T20:35:28.747Z,5.70
2019-04-11T20:37:54.247Z,5.70
2019-04-11T20:40:23.259Z,5.70
2019-04-11T20:42:54.339Z,5.80
2019-04-11T20:45:25.494Z,5.80
2019-04-11T20:47:54.797Z,5.70
2019-04-11T20:50:24.102Z,5.60
2019-04-11T20:52:53.382Z,5.60
2019-04-11T20:55:22.898Z,5.60
2019-04-11T20:57:52.258Z,5.60
2019-04-11T21:00:24.672Z,5.50
2019-04-11T21:02:52.636Z,5.50
2019-04-11T21:05:21.956Z,5.50
2019-04-11T21:07:51.278Z,5.40
2019-04-11T21:10:20.570Z,5.40
2019-04-11T21:12:49.882Z,5.30
2019-04-11T21:15:19.165Z,5.30
2019-04-11T21:17:48.490Z,5.30
2019-04-11T21:20:17.761Z,5.30
2019-04-11T21:22:47.090Z,5.30
2019-04-11T21:25:16.881Z,5.30
2019-04-11T21:27:47.094Z,5.30
2019-04-11T21:30:17.473Z,5.20
2019-04-11T21:32:47.450Z,5.10
2019-04-11T21:35:19.070Z,5.10
2019-04-11T21:37:48.375Z,5.10
2019-04-11T21:40:18.090Z,5.00
2019-04-11T21:42:48.220Z,5.00
2019-04-11T21:45:18.434Z,5.00
2019-04-11T21:47:48.661Z,4.90
2019-04-11T21:50:19.239Z,4.90
2019-04-11T21:52:49.345Z,4.80
2019-04-11T21:55:19.454Z,4.70
2019-04-11T21:57:49.652Z,4.70
2019-04-11T22:00:27.275Z,4.70
2019-04-11T22:02:58.211Z,4.60
2019-04-11T22:05:29.227Z,4.70
2019-04-11T22:08:00.850Z,4.70
2019-04-11T22:10:29.507Z,4.80
2019-04-11T22:12:58.826Z,4.90
2019-04-11T22:15:28.130Z,4.90
2019-04-11T22:17:57.423Z,4.90
2019-04-11T22:20:26.710Z,4.90
2019-04-11T22:22:56.027Z,4.90
2019-04-11T22:25:25.315Z,4.90
2019-04-11T22:27:54.619Z,4.90
2019-04-11T22:30:25.437Z,5.00
2019-04-11T22:32:57.471Z,5.00
2019-04-11T22:35:29.102Z,5.00
2019-04-11T22:37:59.888Z,5.00
2019-04-11T22:40:31.508Z,5.00
2019-04-11T22:43:00.677Z,5.00
2019-04-11T22:45:29.997Z,5.00
2019-04-11T22:47:59.359Z,5.00
2019-04-11T22:50:28.661Z,5.00
2019-04-11T22:52:57.974Z,5.10
2019-04-11T22:55:27.289Z,5.10
2019-04-11T22:57:56.578Z,5.10
2019-04-11T23:00:25.887Z,5.10
2019-04-11T23:03:16.880Z,5.20
2019-04-11T23:05:46.623Z,5.20
2019-04-11T23:08:18.699Z,5.20
2019-04-11T23:10:46.925Z,5.20
2019-04-11T23:13:16.408Z,5.20
2019-04-11T23:15:45.855Z,5.20
2019-04-11T23:18:15.176Z,5.20
2019-04-11T23:20:44.769Z,5.20
2019-04-11T23:23:14.494Z,5.30
2019-04-11T23:25:43.781Z,5.20
2019-04-11T23:28:15.637Z,5.20
2019-04-11T23:30:43.296Z,5.20
2019-04-11T23:33:12.506Z,5.30
2019-04-11T23:35:41.811Z,5.20
2019-04-11T23:38:11.081Z,5.30
2019-04-11T23:40:40.461Z,5.30
2019-04-11T23:43:09.755Z,5.30
2019-04-11T23:45:39.080Z,5.30
2019-04-11T23:48:08.359Z,5.30
2019-04-11T23:50:37.668Z,5.30
2019-04-11T23:53:06.959Z,5.30
2019-04-11T23:55:36.273Z,5.30
2019-04-11T23:58:05.563Z,5.40
